Time;durP1;ratioP1;P1;durP2;ratioP2;P2;SDS_P1;SDS_P2;PMS_P1;PMS_P2;Temp;Humidity;BMP_temperature;BMP_pressure;BME280_temperature;BME280_humidity;BME280_pressure;Samples;Min_cycle;Max_cycle;Signal;HPM_P1;HPM_P2
2023/12/09 00:01:40;;;;;;;13.40;8.10;;;6.60;99.90;;;;;;5077755;28;20869;-63
2023/12/09 00:04:09;;;;;;;10.40;7.90;;;6.60;99.90;;;;;;5078088;28;20464;-63
2023/12/09 00:06:37;;;;;;;12.93;7.63;;;6.60;99.90;;;;;;5077842;28;20464;-63
2023/12/09 00:09:05;;;;;;;15.97;8.53;;;6.60;99.90;;;;;;5077417;28;20482;-63
2023/12/09 00:11:33;;;;;;;10.70;7.00;;;6.50;99.90;;;;;;5077610;28;20496;-63
2023/12/09 00:14:03;;;;;;;12.60;7.77;;;6.50;99.90;;;;;;5077470;28;20457;-63
2023/12/09 00:16:31;;;;;;;12.50;7.80;;;6.60;99.90;;;;;;5077493;28;20556;-64
2023/12/09 00:18:59;;;;;;;9.23;6.77;;;6.50;99.90;;;;;;5077971;28;20461;-63
2023/12/09 00:21:28;;;;;;;9.17;6.53;;;6.50;99.90;;;;;;5076958;28;20432;-63
2023/12/09 00:23:55;;;;;;;14.00;7.00;;;6.50;99.90;;;;;;5077320;28;20482;-64
2023/12/09 00:26:22;;;;;;;13.40;7.70;;;6.50;99.90;;;;;;5077506;28;20552;-63
2023/12/09 00:28:50;;;;;;;12.77;6.50;;;6.50;99.90;;;;;;5081337;28;20467;-63
2023/12/09 00:31:17;;;;;;;12.87;7.67;;;6.60;99.90;;;;;;5077226;28;21017;-63
2023/12/09 00:33:45;;;;;;;9.03;6.63;;;6.60;99.90;;;;;;5077390;28;20465;-63
2023/12/09 00:36:12;;;;;;;11.70;6.30;;;6.50;99.90;;;;;;5077294;28;20457;-63
2023/12/09 00:38:41;;;;;;;13.83;6.47;;;6.50;99.90;;;;;;5077357;28;20442;-63
2023/12/09 00:41:08;;;;;;;12.43;6.60;;;6.60;99.90;;;;;;5076797;28;20481;-64
2023/12/09 00:43:35;;;;;;;9.97;5.80;;;6.50;99.90;;;;;;5077305;28;20457;-63
2023/12/09 00:46:02;;;;;;;12.33;6.50;;;6.50;99.90;;;;;;5076696;28;20522;-64
2023/12/09 00:48:29;;;;;;;15.40;6.43;;;6.60;99.90;;;;;;5077291;28;20457;-66
2023/12/09 00:50:56;;;;;;;12.77;6.07;;;6.60;99.90;;;;;;5077068;28;20580;-66
2023/12/09 00:53:23;;;;;;;9.80;5.70;;;6.60;99.90;;;;;;5077619;28;20457;-66
2023/12/09 00:55:52;;;;;;;8.97;5.60;;;6.50;99.90;;;;;;5076969;28;20457;-66
2023/12/09 00:58:19;;;;;;;14.90;5.90;;;6.60;99.90;;;;;;5077333;28;20492;-67
2023/12/09 01:00:47;;;;;;;12.10;6.80;;;6.60;99.90;;;;;;5077193;28;20556;-66
2023/12/09 01:03:14;;;;;;;7.80;5.20;;;6.60;99.90;;;;;;5076767;28;20462;-66
2023/12/09 01:05:41;;;;;;;12.20;5.87;;;6.60;99.90;;;;;;5076967;28;20568;-67
2023/12/09 01:08:08;;;;;;;8.10;5.40;;;6.60;99.90;;;;;;5076258;28;20485;-67
2023/12/09 01:10:35;;;;;;;12.40;6.17;;;6.50;99.90;;;;;;5076667;28;20587;-66
2023/12/09 01:13:04;;;;;;;10.83;6.50;;;6.60;99.90;;;;;;5076559;28;20552;-67
2023/12/09 01:15:31;;;;;;;10.33;4.93;;;6.60;99.90;;;;;;5076349;28;20457;-66
2023/12/09 01:17:58;;;;;;;9.17;4.97;;;6.60;99.90;;;;;;5077135;28;20466;-66
2023/12/09 01:20:25;;;;;;;7.77;4.60;;;6.60;99.90;;;;;;5077009;28;20457;-66
2023/12/09 01:22:52;;;;;;;12.23;5.90;;;6.60;99.90;;;;;;5077027;28;20790;-66
2023/12/09 01:25:20;;;;;;;11.50;5.20;;;6.60;99.90;;;;;;5076679;28;20560;-66
2023/12/09 01:27:47;;;;;;;15.07;5.93;;;6.50;99.90;;;;;;5076826;28;20457;-65
2023/12/09 01:30:15;;;;;;;7.90;5.17;;;6.60;99.90;;;;;;5076993;28;20457;-65
2023/12/09 01:32:42;;;;;;;17.50;5.40;;;6.60;99.90;;;;;;5076247;28;20552;-65
2023/12/09 01:35:10;;;;;;;11.27;4.90;;;6.60;99.90;;;;;;5076796;28;20461;-65
2023/12/09 01:37:37;;;;;;;12.80;6.10;;;6.60;99.90;;;;;;5076389;28;20462;-65
2023/12/09 01:40:05;;;;;;;11.10;5.40;;;6.70;99.90;;;;;;5076706;28;20849;-65
2023/12/09 01:42:33;;;;;;;10.47;4.87;;;6.70;99.90;;;;;;5076741;28;20556;-65
2023/12/09 01:45:00;;;;;;;11.47;4.73;;;6.60;99.90;;;;;;5076767;28;20457;-65
2023/12/09 01:47:29;;;;;;;14.60;6.30;;;6.60;99.90;;;;;;5076692;28;20875;-65
2023/12/09 01:49:56;;;;;;;11.33;5.03;;;6.60;99.90;;;;;;5076464;28;20522;-65
2023/12/09 01:52:23;;;;;;;13.33;4.60;;;6.60;99.90;;;;;;5076480;28;20584;-64
2023/12/09 01:54:51;;;;;;;10.27;5.30;;;6.60;99.90;;;;;;5076639;28;20461;-65
2023/12/09 01:57:18;;;;;;;8.70;4.83;;;6.60;99.90;;;;;;5076378;28;20886;-65
2023/12/09 01:59:45;;;;;;;10.27;4.60;;;6.50;99.90;;;;;;5076431;28;20883;-64
2023/12/09 02:02:12;;;;;;;10.53;5.70;;;6.60;99.90;;;;;;5077292;28;20459;-65
2023/12/09 02:04:41;;;;;;;9.70;4.57;;;6.60;99.90;;;;;;5080122;28;20502;-64
2023/12/09 02:07:08;;;;;;;10.23;4.60;;;6.60;99.90;;;;;;5080317;28;20722;-65
2023/12/09 02:09:39;;;;;;;7.50;4.47;;;6.50;99.90;;;;;;5079876;28;20539;-65
2023/12/09 02:12:11;;;;;;;7.30;4.47;;;6.50;99.90;;;;;;5080059;28;20493;-65
2023/12/09 02:14:47;;;;;;;14.00;5.37;;;6.50;99.90;;;;;;5079962;28;20496;-64
2023/12/09 02:17:20;;;;;;;9.93;4.43;;;6.60;99.90;;;;;;5079971;28;20492;-65
2023/12/09 02:19:49;;;;;;;9.33;5.50;;;6.60;99.90;;;;;;5079625;28;20547;-65
2023/12/09 02:22:16;;;;;;;9.73;4.53;;;6.70;99.90;;;;;;5079728;28;20738;-63
2023/12/09 02:24:45;;;;;;;8.80;4.97;;;6.70;99.90;;;;;;5079689;28;20463;-64
2023/12/09 02:27:14;;;;;;;14.30;4.47;;;6.80;99.90;;;;;;5079307;28;20457;-65
2023/12/09 02:29:51;;;;;;;9.77;4.50;;;6.70;99.90;;;;;;5079465;28;20457;-65
2023/12/09 02:32:22;;;;;;;12.80;4.83;;;6.70;99.90;;;;;;5079635;28;20496;-65
2023/12/09 02:34:50;;;;;;;19.70;5.37;;;6.80;99.90;;;;;;5079715;28;20552;-65
2023/12/09 02:37:19;;;;;;;9.67;4.67;;;6.80;99.90;;;;;;5079111;28;20458;-64
2023/12/09 02:39:49;;;;;;;10.77;4.50;;;6.70;99.90;;;;;;5079209;28;20462;-64
2023/12/09 02:42:17;;;;;;;8.37;4.80;;;6.70;99.90;;;;;;5078946;28;20458;-64
2023/12/09 02:44:44;;;;;;;14.07;4.50;;;6.70;99.90;;;;;;5077738;28;20471;-64
2023/12/09 02:47:15;;;;;;;9.57;5.23;;;6.70;99.90;;;;;;5078594;28;20540;-64
2023/12/09 02:49:42;;;;;;;11.20;4.83;;;6.70;99.90;;;;;;5078193;28;20560;-64
2023/12/09 02:52:10;;;;;;;8.57;4.60;;;6.70;99.90;;;;;;5078971;28;20500;-64
2023/12/09 02:54:37;;;;;;;13.30;4.53;;;6.70;99.90;;;;;;5078051;28;20556;-64
2023/12/09 02:57:06;;;;;;;10.07;4.70;;;6.70;99.90;;;;;;5078560;28;20468;-64
2023/12/09 02:59:33;;;;;;;8.27;4.73;;;6.70;99.90;;;;;;5078842;28;20552;-64
2023/12/09 03:02:00;;;;;;;17.13;5.73;;;6.60;99.90;;;;;;5078869;28;20457;-64
2023/12/09 03:04:29;;;;;;;11.00;5.00;;;6.60;99.90;;;;;;5079126;28;20867;-64
2023/12/09 03:06:56;;;;;;;11.40;5.83;;;6.60;99.90;;;;;;5079268;28;20505;-64
2023/12/09 03:09:23;;;;;;;11.77;5.13;;;6.50;99.90;;;;;;5078366;28;20532;-64
2023/12/09 03:11:50;;;;;;;10.67;4.60;;;6.50;99.90;;;;;;5078521;28;20981;-64
2023/12/09 03:14:19;;;;;;;10.20;4.87;;;6.60;99.90;;;;;;5077583;28;20457;-65
2023/12/09 03:16:46;;;;;;;12.87;5.50;;;6.60;99.90;;;;;;5079035;28;20476;-64
2023/12/09 03:19:13;;;;;;;16.27;5.57;;;6.60;99.90;;;;;;5078250;28;20457;-64
2023/12/09 03:21:40;;;;;;;12.50;5.87;;;6.60;99.90;;;;;;5078283;28;20433;-64
2023/12/09 03:24:07;;;;;;;10.90;5.10;;;6.70;99.90;;;;;;5078613;28;20961;-64
2023/12/09 03:26:35;;;;;;;8.93;4.90;;;6.60;99.90;;;;;;5078687;28;20560;-64
2023/12/09 03:29:02;;;;;;;14.13;6.57;;;6.60;99.90;;;;;;5078900;28;20449;-64
2023/12/09 03:31:30;;;;;;;12.63;5.77;;;6.60;99.90;;;;;;5078032;28;20500;-64
2023/12/09 03:33:58;;;;;;;12.20;5.33;;;6.50;99.90;;;;;;5078253;28;20457;-64
2023/12/09 03:36:25;;;;;;;10.40;5.20;;;6.50;99.90;;;;;;5078424;28;20556;-64
2023/12/09 03:38:53;;;;;;;12.63;4.60;;;6.50;99.90;;;;;;5078262;28;20463;-64
2023/12/09 03:41:20;;;;;;;12.80;6.50;;;6.50;99.90;;;;;;5077881;28;20556;-63
2023/12/09 03:43:47;;;;;;;14.47;5.37;;;6.50;99.90;;;;;;5077941;28;20456;-64
2023/12/09 03:46:14;;;;;;;10.77;5.00;;;6.50;99.90;;;;;;5078376;28;20504;-64
2023/12/09 03:48:43;;;;;;;9.37;5.13;;;6.50;99.90;;;;;;5078142;28;20431;-64
2023/12/09 03:51:10;;;;;;;18.13;5.17;;;6.40;99.90;;;;;;5077843;28;20489;-64
2023/12/09 03:53:37;;;;;;;13.27;5.43;;;6.40;99.90;;;;;;5078392;28;20463;-64
2023/12/09 03:56:05;;;;;;;8.47;5.30;;;6.40;99.90;;;;;;5077724;28;20763;-64
2023/12/09 03:58:34;;;;;;;15.57;5.10;;;6.40;99.90;;;;;;5077990;28;20469;-64
2023/12/09 04:01:02;;;;;;;12.57;5.37;;;6.30;99.90;;;;;;5078027;28;20491;-64
2023/12/09 04:03:29;;;;;;;14.20;5.73;;;6.30;99.90;;;;;;5077738;28;20754;-64
2023/12/09 04:05:58;;;;;;;12.07;5.10;;;6.20;99.90;;;;;;5078193;28;20461;-64
2023/12/09 04:08:26;;;;;;;11.40;5.43;;;6.20;99.90;;;;;;5077465;28;20539;-64
2023/12/09 04:10:53;;;;;;;10.00;4.97;;;6.10;99.90;;;;;;5078069;28;20432;-64
2023/12/09 04:13:20;;;;;;;11.57;5.13;;;6.10;99.90;;;;;;5077462;28;20883;-63
2023/12/09 04:15:47;;;;;;;13.17;4.50;;;6.00;99.90;;;;;;5077103;28;20461;-63
2023/12/09 04:18:14;;;;;;;7.73;4.73;;;6.00;99.90;;;;;;5077907;28;20901;-65
2023/12/09 04:20:42;;;;;;;9.17;5.33;;;6.00;99.90;;;;;;5077602;28;20465;-63
2023/12/09 04:23:10;;;;;;;9.03;5.37;;;6.00;99.90;;;;;;5060827;28;20462;-64
2023/12/09 04:25:37;;;;;;;13.07;4.97;;;6.00;99.90;;;;;;5056850;28;20485;-64
2023/12/09 04:28:05;;;;;;;12.70;4.40;;;6.00;99.90;;;;;;5057332;28;20818;-64
2023/12/09 04:30:32;;;;;;;12.63;4.57;;;6.00;99.90;;;;;;5057563;28;20515;-64
2023/12/09 04:32:59;;;;;;;11.77;5.50;;;5.90;99.90;;;;;;5057336;28;20490;-64
2023/12/09 04:35:27;;;;;;;14.23;7.20;;;5.90;99.90;;;;;;5057511;28;20464;-63
2023/12/09 04:37:54;;;;;;;17.60;8.90;;;5.90;99.90;;;;;;5057143;28;20462;-63
2023/12/09 04:40:22;;;;;;;27.27;12.73;;;5.80;99.90;;;;;;5057542;28;20461;-64
2023/12/09 04:42:49;;;;;;;17.50;8.00;;;5.80;99.90;;;;;;5056846;28;20508;-64
2023/12/09 04:45:17;;;;;;;17.77;7.33;;;5.80;99.90;;;;;;5057029;28;20468;-64
2023/12/09 04:47:44;;;;;;;33.93;17.73;;;5.70;99.90;;;;;;5057229;28;20458;-64
2023/12/09 04:50:11;;;;;;;23.30;11.20;;;5.60;99.90;;;;;;5057192;28;20748;-64
2023/12/09 04:52:38;;;;;;;17.27;8.10;;;5.60;99.90;;;;;;5057075;28;20826;-64
2023/12/09 04:55:08;;;;;;;13.60;6.20;;;5.60;99.90;;;;;;5056838;28;20880;-64
2023/12/09 04:57:37;;;;;;;15.17;7.70;;;5.60;99.90;;;;;;5056983;28;20759;-64
2023/12/09 05:00:06;;;;;;;13.67;6.20;;;5.60;99.90;;;;;;5057005;28;20466;-65
2023/12/09 05:02:33;;;;;;;15.47;6.10;;;5.70;99.90;;;;;;5057443;28;20489;-65
2023/12/09 05:05:00;;;;;;;13.50;8.20;;;5.70;99.90;;;;;;5057448;28;20739;-65
2023/12/09 05:07:28;;;;;;;16.80;6.93;;;5.70;99.90;;;;;;5056426;28;20466;-64
2023/12/09 05:09:55;;;;;;;14.43;8.00;;;5.80;99.90;;;;;;5056906;28;20927;-64
2023/12/09 05:12:22;;;;;;;12.67;7.57;;;5.70;99.90;;;;;;5056426;28;20580;-64
2023/12/09 05:14:51;;;;;;;16.33;8.20;;;5.70;99.90;;;;;;5057291;28;20458;-65
2023/12/09 05:17:18;;;;;;;12.77;5.80;;;5.80;99.90;;;;;;5056942;28;20480;-65
2023/12/09 05:19:45;;;;;;;10.63;5.00;;;5.80;99.90;;;;;;5056599;28;20468;-65
2023/12/09 05:22:14;;;;;;;13.10;6.37;;;5.80;99.90;;;;;;5056800;28;20553;-65
2023/12/09 05:24:41;;;;;;;12.03;5.83;;;5.70;99.90;;;;;;5056850;28;20732;-64
2023/12/09 05:27:08;;;;;;;9.87;5.63;;;5.70;99.90;;;;;;5056423;28;20817;-64
2023/12/09 05:29:36;;;;;;;7.23;4.90;;;5.70;99.90;;;;;;5056899;28;20458;-65
2023/12/09 05:32:05;;;;;;;11.20;7.07;;;5.60;99.90;;;;;;5057044;28;20492;-64
2023/12/09 05:34:32;;;;;;;10.60;5.53;;;5.60;99.90;;;;;;5056756;28;20462;-65
2023/12/09 05:36:59;;;;;;;11.07;5.90;;;5.50;99.90;;;;;;5057711;28;20461;-64
2023/12/09 05:39:26;;;;;;;10.13;5.73;;;5.60;99.90;;;;;;5060543;28;20764;-64
2023/12/09 05:41:53;;;;;;;10.27;5.70;;;5.50;99.90;;;;;;5060372;28;20458;-64
2023/12/09 05:44:21;;;;;;;11.13;5.83;;;5.60;99.90;;;;;;5060479;28;20464;-65
2023/12/09 05:46:48;;;;;;;9.23;5.20;;;5.60;99.90;;;;;;5060791;28;20466;-65
2023/12/09 05:49:16;;;;;;;11.50;5.70;;;5.60;99.90;;;;;;5060250;28;20464;-64
2023/12/09 05:51:44;;;;;;;11.27;6.00;;;5.50;99.90;;;;;;5060067;28;20490;-65
2023/12/09 05:54:11;;;;;;;9.00;5.33;;;5.50;99.90;;;;;;5060132;28;20561;-65
2023/12/09 05:56:41;;;;;;;12.63;5.00;;;5.50;99.90;;;;;;5060069;28;20464;-65
2023/12/09 05:59:08;;;;;;;12.20;5.60;;;5.50;99.90;;;;;;5058813;28;20458;-64
2023/12/09 06:01:35;;;;;;;15.53;5.63;;;5.50;99.90;;;;;;5059494;28;20458;-64
2023/12/09 06:04:02;;;;;;;13.33;6.40;;;5.50;99.90;;;;;;5060056;28;20463;-64
2023/12/09 06:06:31;;;;;;;8.53;5.00;;;5.50;99.90;;;;;;5060165;28;20464;-65
2023/12/09 06:08:58;;;;;;;7.83;5.30;;;5.50;99.90;;;;;;5059963;28;20782;-65
2023/12/09 06:11:26;;;;;;;10.23;6.30;;;5.50;99.90;;;;;;5059710;28;20464;-65
2023/12/09 06:13:53;;;;;;;8.93;5.03;;;5.50;99.90;;;;;;5059521;28;20585;-64
2023/12/09 06:16:20;;;;;;;12.13;6.03;;;5.50;99.90;;;;;;5059988;28;20490;-64
2023/12/09 06:18:48;;;;;;;12.77;5.00;;;5.40;99.90;;;;;;5059945;28;20946;-64
2023/12/09 06:21:22;;;;;;;8.80;4.80;;;5.40;99.90;;;;;;5059923;28;20557;-65
2023/12/09 06:23:51;;;;;;;10.10;4.87;;;5.40;99.90;;;;;;5059847;28;20902;-65
2023/12/09 06:26:18;;;;;;;15.67;5.70;;;5.40;99.90;;;;;;5059956;28;20552;-64
2023/12/09 06:28:46;;;;;;;8.20;5.33;;;5.40;99.90;;;;;;5059793;28;20458;-65
2023/12/09 06:31:13;;;;;;;9.50;5.30;;;5.40;99.90;;;;;;5059968;28;20964;-65
2023/12/09 06:33:40;;;;;;;10.13;5.80;;;5.30;99.90;;;;;;5059250;28;20496;-64
2023/12/09 06:36:08;;;;;;;11.10;5.87;;;5.40;99.90;;;;;;5059788;28;20458;-65
2023/12/09 06:38:39;;;;;;;8.80;5.20;;;5.30;99.90;;;;;;5059931;28;20458;-64
2023/12/09 06:41:08;;;;;;;11.33;5.67;;;5.30;99.90;;;;;;5059247;28;20551;-65
2023/12/09 06:43:35;;;;;;;10.70;5.60;;;5.30;99.90;;;;;;5059187;28;20461;-64
2023/12/09 06:46:02;;;;;;;9.60;5.97;;;5.30;99.90;;;;;;5059405;28;20872;-64
2023/12/09 06:48:30;;;;;;;10.83;6.00;;;5.30;99.90;;;;;;5059402;28;20841;-65
2023/12/09 06:50:57;;;;;;;15.73;6.73;;;5.20;99.90;;;;;;5059480;28;20840;-65
2023/12/09 06:53:24;;;;;;;10.10;6.20;;;5.30;99.90;;;;;;5059356;28;20506;-65
2023/12/09 06:55:51;;;;;;;13.40;6.10;;;5.30;99.90;;;;;;5059077;28;20557;-65
2023/12/09 06:58:20;;;;;;;9.70;5.97;;;5.30;99.90;;;;;;5059139;28;20462;-64
2023/12/09 07:00:47;;;;;;;12.63;5.70;;;5.20;99.90;;;;;;5059523;28;20469;-64
2023/12/09 07:03:14;;;;;;;9.50;5.80;;;5.20;99.90;;;;;;5057782;28;20455;-64
2023/12/09 07:05:41;;;;;;;16.93;6.57;;;5.20;99.90;;;;;;5058485;28;20886;-64
2023/12/09 07:08:10;;;;;;;12.27;5.37;;;5.20;99.90;;;;;;5058394;28;20486;-65
2023/12/09 07:10:38;;;;;;;14.00;5.57;;;5.30;99.90;;;;;;5058994;28;20458;-65
2023/12/09 07:13:05;;;;;;;10.93;5.90;;;5.30;99.90;;;;;;5059072;28;20979;-65
2023/12/09 07:15:34;;;;;;;12.03;6.00;;;5.40;99.90;;;;;;5058671;28;20465;-65
2023/12/09 07:18:01;;;;;;;14.27;6.50;;;5.50;99.90;;;;;;5058730;28;20550;-64
2023/12/09 07:20:28;;;;;;;12.60;5.83;;;5.60;99.90;;;;;;5058409;28;20545;-65
2023/12/09 07:22:55;;;;;;;16.93;6.17;;;5.60;99.90;;;;;;5058778;28;20814;-65
2023/12/09 07:25:23;;;;;;;14.23;6.23;;;5.70;99.90;;;;;;5058351;28;20462;-66
2023/12/09 07:27:51;;;;;;;11.90;5.77;;;5.70;99.90;;;;;;5058507;28;20470;-67
2023/12/09 07:30:18;;;;;;;11.60;5.77;;;5.70;99.90;;;;;;5058432;28;20459;-67
2023/12/09 07:32:47;;;;;;;9.33;5.33;;;5.60;99.90;;;;;;5058646;28;20831;-67
2023/12/09 07:35:16;;;;;;;15.60;6.40;;;5.60;99.90;;;;;;5058028;28;20465;-67
2023/12/09 07:37:44;;;;;;;11.63;6.37;;;5.60;99.90;;;;;;5058370;28;20463;-67
2023/12/09 07:40:12;;;;;;;6.67;5.20;;;5.60;99.90;;;;;;5058500;28;20462;-67
2023/12/09 07:42:39;;;;;;;8.43;4.80;;;5.60;99.90;;;;;;5058330;28;20524;-66
2023/12/09 07:45:08;;;;;;;8.40;5.30;;;5.60;99.90;;;;;;5058226;28;20516;-66
2023/12/09 07:47:35;;;;;;;11.67;5.37;;;5.60;99.90;;;;;;5058227;28;20501;-67
2023/12/09 07:50:04;;;;;;;8.10;4.63;;;5.60;99.90;;;;;;5058052;28;20570;-66
2023/12/09 07:52:31;;;;;;;10.07;5.00;;;5.60;99.90;;;;;;5058156;28;20520;-68
2023/12/09 07:54:58;;;;;;;12.73;5.40;;;5.60;99.90;;;;;;5058179;28;20470;-67
2023/12/09 07:57:25;;;;;;;9.90;4.67;;;5.70;99.90;;;;;;5057931;28;20557;-66
2023/12/09 07:59:52;;;;;;;9.53;4.97;;;5.70;99.90;;;;;;5057255;28;20880;-67
2023/12/09 08:02:20;;;;;;;9.60;4.93;;;5.70;99.90;;;;;;5058193;28;20896;-66
2023/12/09 08:04:47;;;;;;;8.83;4.93;;;5.80;99.90;;;;;;5057935;28;20486;-67
2023/12/09 08:07:15;;;;;;;10.13;6.03;;;5.80;99.90;;;;;;5057441;28;20520;-66
2023/12/09 08:09:43;;;;;;;11.03;5.03;;;5.80;99.90;;;;;;5056695;28;20454;-67
2023/12/09 08:12:10;;;;;;;7.83;5.10;;;5.90;99.90;;;;;;5057134;28;20528;-67
2023/12/09 08:14:37;;;;;;;13.63;6.60;;;6.00;99.90;;;;;;5058299;28;20455;-67
2023/12/09 08:17:05;;;;;;;10.03;4.30;;;6.00;99.90;;;;;;5057529;28;20458;-66
2023/12/09 08:19:32;;;;;;;9.63;4.50;;;6.10;99.90;;;;;;5057762;28;20506;-67
2023/12/09 08:22:00;;;;;;;7.23;5.13;;;6.10;99.90;;;;;;5057679;28;20545;-67
2023/12/09 08:24:29;;;;;;;9.20;4.83;;;6.20;99.90;;;;;;5056792;28;20541;-66
2023/12/09 08:26:56;;;;;;;8.73;4.90;;;6.20;99.90;;;;;;5056348;28;20548;-67
2023/12/09 08:29:25;;;;;;;10.30;5.50;;;6.30;99.90;;;;;;5056250;28;20549;-66
2023/12/09 08:31:52;;;;;;;11.03;4.93;;;6.30;99.90;;;;;;5056859;28;20441;-67
2023/12/09 08:34:20;;;;;;;9.20;4.40;;;6.20;99.90;;;;;;5056847;28;20490;-66
2023/12/09 08:36:47;;;;;;;10.13;5.60;;;6.20;99.90;;;;;;5057168;28;20822;-66
2023/12/09 08:39:16;;;;;;;7.63;4.57;;;6.20;99.90;;;;;;5056604;28;20516;-67
2023/12/09 08:41:44;;;;;;;10.00;5.17;;;6.10;99.90;;;;;;5057243;28;20462;-67
2023/12/09 08:44:12;;;;;;;16.10;5.53;;;6.10;99.90;;;;;;5057480;28;20454;-67
2023/12/09 08:46:39;;;;;;;8.70;5.00;;;6.20;99.90;;;;;;5057580;28;20532;-66
2023/12/09 08:49:06;;;;;;;12.13;5.20;;;6.20;99.90;;;;;;5056992;28;20910;-66
2023/12/09 08:51:44;;;;;;;11.67;4.43;;;6.20;99.90;;;;;;5056772;28;20900;-66
2023/12/09 08:54:11;;;;;;;9.87;4.87;;;6.20;99.90;;;;;;5057274;28;20500;-66
2023/12/09 08:56:39;;;;;;;13.60;4.60;;;6.20;99.90;;;;;;5057206;28;20916;-66
2023/12/09 08:59:10;;;;;;;9.60;4.40;;;6.20;99.90;;;;;;5057062;28;20892;-66
2023/12/09 09:01:38;;;;;;;7.27;4.20;;;6.20;99.90;;;;;;5057078;28;20462;-66
2023/12/09 09:04:05;;;;;;;11.50;4.83;;;6.30;99.90;;;;;;5057154;28;20461;-66
2023/12/09 09:06:33;;;;;;;7.77;4.53;;;6.30;99.90;;;;;;5057394;28;20561;-65
2023/12/09 09:09:00;;;;;;;13.77;4.63;;;6.30;99.90;;;;;;5056840;28;20572;-67
2023/12/09 09:11:27;;;;;;;10.90;4.50;;;6.40;99.90;;;;;;5058506;28;20462;-66
2023/12/09 09:13:54;;;;;;;18.50;5.33;;;6.40;99.90;;;;;;5061024;28;20537;-66
2023/12/09 09:16:23;;;;;;;15.63;5.17;;;6.40;99.90;;;;;;5061419;28;20508;-65
2023/12/09 09:18:50;;;;;;;12.23;5.50;;;6.50;99.90;;;;;;5061400;28;20891;-66
2023/12/09 09:21:17;;;;;;;15.40;4.47;;;6.50;99.90;;;;;;5060842;28;20847;-66
2023/12/09 09:23:44;;;;;;;12.20;5.23;;;6.60;99.90;;;;;;5060811;28;20832;-66
2023/12/09 09:26:12;;;;;;;7.87;4.77;;;6.60;99.90;;;;;;5075960;28;20460;-65
2023/12/09 09:28:39;;;;;;;9.23;4.53;;;6.60;99.90;;;;;;5080287;28;20458;-65
2023/12/09 09:31:06;;;;;;;12.70;4.53;;;6.70;99.90;;;;;;5080661;28;20875;-67
2023/12/09 09:33:35;;;;;;;15.23;4.70;;;6.70;99.90;;;;;;5080713;28;20937;-65
2023/12/09 09:36:02;;;;;;;11.07;4.33;;;6.80;99.90;;;;;;5080476;28;20548;-66
2023/12/09 09:38:30;;;;;;;9.90;5.30;;;6.80;99.90;;;;;;5080515;28;20472;-65
2023/12/09 09:40:57;;;;;;;8.43;4.20;;;6.90;99.90;;;;;;5080745;28;20467;-65
2023/12/09 09:43:29;;;;;;;12.47;5.70;;;6.90;99.90;;;;;;5080096;28;20481;-64
2023/12/09 09:45:58;;;;;;;10.57;4.10;;;7.00;99.90;;;;;;5079511;28;20463;-64
2023/12/09 09:48:25;;;;;;;11.33;3.80;;;7.00;99.90;;;;;;5080012;28;20522;-66
2023/12/09 09:50:57;;;;;;;13.07;4.23;;;7.10;99.90;;;;;;5079965;28;20496;-65
2023/12/09 09:53:34;;;;;;;7.43;3.90;;;7.20;99.90;;;;;;5079113;28;20529;-65
2023/12/09 09:56:02;;;;;;;16.20;4.50;;;7.40;99.90;;;;;;5079704;28;20465;-64
2023/12/09 09:58:31;;;;;;;13.90;4.90;;;7.50;99.90;;;;;;5080595;28;20870;-64
2023/12/09 10:01:00;;;;;;;8.80;3.73;;;7.60;99.90;;;;;;5080416;28;20461;-65
2023/12/09 10:03:27;;;;;;;7.93;4.50;;;7.70;99.90;;;;;;5080098;28;20901;-64
2023/12/09 10:05:57;;;;;;;11.10;5.53;;;7.70;99.90;;;;;;5080203;28;20461;-63
2023/12/09 10:08:25;;;;;;;9.80;5.43;;;7.80;99.90;;;;;;5079693;28;20875;-64
2023/12/09 10:10:52;;;;;;;9.93;4.03;;;7.90;99.90;;;;;;5080200;28;20527;-64
2023/12/09 10:13:19;;;;;;;9.87;4.80;;;8.00;99.90;;;;;;5079614;28;20492;-64
2023/12/09 10:15:47;;;;;;;9.90;5.03;;;7.90;99.90;;;;;;5079912;28;20917;-62
2023/12/09 10:18:14;;;;;;;7.23;4.07;;;7.80;99.90;;;;;;5079926;28;20878;-69
2023/12/09 10:20:43;;;;;;;10.03;4.30;;;7.70;99.90;;;;;;5080203;28;20555;-63
2023/12/09 10:23:12;;;;;;;18.83;7.30;;;7.60;99.90;;;;;;5078821;28;20754;-65
2023/12/09 10:25:41;;;;;;;9.77;3.90;;;7.60;99.90;;;;;;5079641;28;20453;-64
2023/12/09 10:28:08;;;;;;;10.17;5.10;;;7.50;99.90;;;;;;5078670;28;20489;-63
2023/12/09 10:30:36;;;;;;;9.47;4.40;;;7.40;99.90;;;;;;5077920;28;20920;-63
2023/12/09 10:33:04;;;;;;;17.80;5.77;;;7.40;99.90;;;;;;5076501;28;20480;-63
2023/12/09 10:35:31;;;;;;;11.20;4.17;;;7.30;99.90;;;;;;5079490;28;20480;-64
2023/12/09 10:38:02;;;;;;;10.50;4.60;;;7.30;99.90;;;;;;5078389;28;20461;-63
2023/12/09 10:40:31;;;;;;;13.80;4.73;;;7.40;99.90;;;;;;5078912;28;20485;-62
2023/12/09 10:42:58;;;;;;;9.80;5.30;;;7.40;99.90;;;;;;5078926;28;20489;-64
2023/12/09 10:45:25;;;;;;;13.30;4.77;;;7.40;99.90;;;;;;5077494;28;20465;-63
2023/12/09 10:47:53;;;;;;;19.23;6.83;;;7.40;99.90;;;;;;5077233;28;20557;-63
2023/12/09 10:50:20;;;;;;;17.60;5.17;;;7.40;99.90;;;;;;5078015;28;20797;-63
2023/12/09 10:52:48;;;;;;;15.30;4.97;;;7.40;99.90;;;;;;5078086;28;20511;-63
2023/12/09 10:55:15;;;;;;;12.97;5.30;;;7.40;99.90;;;;;;5077235;28;20528;-63
2023/12/09 10:57:44;;;;;;;14.30;4.60;;;7.40;99.90;;;;;;5078350;28;20457;-63
2023/12/09 11:00:15;;;;;;;11.53;4.10;;;7.30;99.90;;;;;;5079386;28;20464;-63
2023/12/09 11:02:43;;;;;;;17.13;6.00;;;7.40;99.90;;;;;;5079105;28;20465;-63
2023/12/09 11:05:11;;;;;;;11.13;4.30;;;7.40;99.90;;;;;;5078538;28;20449;-63
2023/12/09 11:07:40;;;;;;;15.30;5.23;;;7.50;99.90;;;;;;5078736;28;20496;-62
2023/12/09 11:10:08;;;;;;;11.40;4.97;;;7.50;99.90;;;;;;5079082;28;20544;-64
2023/12/09 11:12:37;;;;;;;9.47;4.03;;;7.50;99.90;;;;;;5079334;28;20556;-64
2023/12/09 11:15:18;;;;;;;14.10;5.30;;;7.50;99.90;;;;;;5078587;28;20588;-63
2023/12/09 11:17:47;;;;;;;12.93;4.60;;;7.40;99.90;;;;;;5078606;28;20456;-63
2023/12/09 11:20:17;;;;;;;8.10;4.60;;;7.40;99.90;;;;;;5078715;28;20475;-63
2023/12/09 11:22:45;;;;;;;16.87;4.67;;;7.40;99.90;;;;;;5078821;28;20457;-66
2023/12/09 11:25:21;;;;;;;8.63;5.00;;;7.50;99.90;;;;;;5077877;28;20436;-64
2023/12/09 11:27:50;;;;;;;12.97;4.87;;;7.40;99.90;;;;;;5078619;28;20492;-64
2023/12/09 11:30:34;;;;;;;7.77;3.97;;;7.40;99.90;;;;;;5078844;28;20457;-63
2023/12/09 11:33:02;;;;;;;11.50;4.40;;;7.40;99.90;;;;;;5078957;28;20549;-64
2023/12/09 11:35:30;;;;;;;12.83;3.80;;;7.40;99.90;;;;;;5077428;28;20583;-63
2023/12/09 11:37:59;;;;;;;9.60;4.20;;;7.40;99.90;;;;;;5078233;28;20548;-63
2023/12/09 11:40:29;;;;;;;10.00;3.83;;;7.40;99.90;;;;;;5078591;28;20483;-64
2023/12/09 11:42:59;;;;;;;11.83;3.57;;;7.40;99.90;;;;;;5078146;28;20461;-63
2023/12/09 11:45:27;;;;;;;8.87;3.80;;;7.40;99.90;;;;;;5078130;28;20806;-64
2023/12/09 11:47:55;;;;;;;9.43;3.87;;;7.40;99.90;;;;;;5078011;28;20515;-62
2023/12/09 11:50:24;;;;;;;26.87;10.70;;;7.50;99.90;;;;;;5078060;28;20760;-63
2023/12/09 11:52:52;;;;;;;15.83;5.97;;;7.50;99.90;;;;;;5076599;28;20753;-66
2023/12/09 11:55:20;;;;;;;13.03;5.30;;;7.50;99.90;;;;;;5077090;28;20520;-63
2023/12/09 11:57:47;;;;;;;19.73;7.50;;;7.50;99.90;;;;;;5077755;28;20428;-63
2023/12/09 12:00:15;;;;;;;14.60;6.30;;;7.50;99.90;;;;;;5076641;28;20540;-63
2023/12/09 12:02:43;;;;;;;44.23;17.83;;;7.50;99.90;;;;;;5077475;28;20545;-63
2023/12/09 12:05:12;;;;;;;13.43;5.90;;;7.50;99.90;;;;;;5076749;28;20453;-64
2023/12/09 12:07:40;;;;;;;7.40;4.40;;;7.50;99.90;;;;;;5077474;28;20568;-63
2023/12/09 12:10:09;;;;;;;14.10;4.37;;;7.50;99.90;;;;;;5077275;28;20815;-64
2023/12/09 12:12:37;;;;;;;15.40;5.10;;;7.50;99.90;;;;;;5077239;28;20454;-63
2023/12/09 12:15:05;;;;;;;10.40;4.67;;;7.50;99.90;;;;;;5077711;28;20933;-63
2023/12/09 12:17:39;;;;;;;10.10;5.20;;;7.60;99.90;;;;;;5077588;28;20515;-63
2023/12/09 12:20:08;;;;;;;18.93;7.00;;;7.60;99.90;;;;;;5077937;28;20878;-63
2023/12/09 12:22:37;;;;;;;15.73;6.47;;;7.70;99.90;;;;;;5077991;28;20461;-63
2023/12/09 12:25:05;;;;;;;12.57;5.90;;;7.80;99.90;;;;;;5077447;28;20951;-65
2023/12/09 12:27:37;;;;;;;13.67;7.10;;;7.80;99.90;;;;;;5077679;28;20487;-64
2023/12/09 12:30:06;;;;;;;11.77;4.50;;;7.90;99.90;;;;;;5077625;28;20457;-63
2023/12/09 12:32:37;;;;;;;9.60;4.40;;;7.90;99.90;;;;;;5077587;28;20466;-65
2023/12/09 12:35:06;;;;;;;10.47;5.40;;;8.00;99.90;;;;;;5077180;28;20587;-64
2023/12/09 12:37:33;;;;;;;17.70;5.17;;;8.00;99.90;;;;;;5077086;28;20465;-64
2023/12/09 12:40:03;;;;;;;9.90;4.67;;;8.00;99.90;;;;;;5077833;28;20457;-65
2023/12/09 12:42:31;;;;;;;9.40;4.13;;;8.10;99.90;;;;;;5077182;28;20468;-65
2023/12/09 12:44:59;;;;;;;11.00;3.97;;;8.10;99.90;;;;;;5077775;28;20507;-66
2023/12/09 12:47:26;;;;;;;15.57;4.77;;;8.10;99.90;;;;;;5076566;28;20491;-66
2023/12/09 12:49:54;;;;;;;12.30;4.70;;;8.10;99.90;;;;;;5077333;28;20456;-63
2023/12/09 12:52:21;;;;;;;13.60;4.47;;;8.10;99.90;;;;;;5077342;28;20457;-63
2023/12/09 12:54:48;;;;;;;13.97;4.60;;;8.20;99.90;;;;;;5077267;28;20539;-63